sensor_id;sensor_type;location;lat;lon;timestamp;P1;durP1;ratioP1;P2;durP2;ratioP2
44145;SDS011;29809;52.432;4.780;2022-12-18T00:00:03;21.25;;;17.55;;
44145;SDS011;29809;52.432;4.780;2022-12-18T00:02:29;22.30;;;17.80;;
44145;SDS011;29809;52.432;4.780;2022-12-18T00:04:54;21.08;;;17.17;;
44145;SDS011;29809;52.432;4.780;2022-12-18T00:07:19;19.27;;;16.45;;
44145;SDS011;29809;52.432;4.780;2022-12-18T00:09:45;22.23;;;17.98;;
44145;SDS011;29809;52.432;4.780;2022-12-18T00:12:10;20.27;;;16.20;;
44145;SDS011;29809;52.432;4.780;2022-12-18T00:14:35;20.20;;;16.67;;
44145;SDS011;29809;52.432;4.780;2022-12-18T00:17:01;19.95;;;17.25;;
44145;SDS011;29809;52.432;4.780;2022-12-18T00:19:27;22.02;;;17.33;;
44145;SDS011;29809;52.432;4.780;2022-12-18T00:21:53;19.77;;;16.90;;
44145;SDS011;29809;52.432;4.780;2022-12-18T00:24:18;19.40;;;16.33;;
44145;SDS011;29809;52.432;4.780;2022-12-18T00:26:43;19.83;;;15.65;;
44145;SDS011;29809;52.432;4.780;2022-12-18T00:29:12;21.08;;;16.27;;
44145;SDS011;29809;52.432;4.780;2022-12-18T00:31:41;20.25;;;16.60;;
44145;SDS011;29809;52.432;4.780;2022-12-18T00:34:08;19.70;;;16.00;;
44145;SDS011;29809;52.432;4.780;2022-12-18T00:36:34;19.77;;;16.00;;
44145;SDS011;29809;52.432;4.780;2022-12-18T00:39:00;20.58;;;17.05;;
44145;SDS011;29809;52.432;4.780;2022-12-18T00:41:26;20.50;;;16.77;;
44145;SDS011;29809;52.432;4.780;2022-12-18T00:44:11;20.08;;;15.70;;
44145;SDS011;29809;52.432;4.780;2022-12-18T00:46:37;21.20;;;16.95;;
44145;SDS011;29809;52.432;4.780;2022-12-18T00:49:02;19.55;;;15.95;;
44145;SDS011;29809;52.432;4.780;2022-12-18T00:51:27;20.20;;;17.00;;
44145;SDS011;29809;52.432;4.780;2022-12-18T00:53:53;20.13;;;16.52;;
44145;SDS011;29809;52.432;4.780;2022-12-18T00:56:18;19.75;;;15.27;;
44145;SDS011;29809;52.432;4.780;2022-12-18T00:58:43;19.70;;;16.63;;
44145;SDS011;29809;52.432;4.780;2022-12-18T01:01:08;21.55;;;17.83;;
44145;SDS011;29809;52.432;4.780;2022-12-18T01:03:34;20.65;;;15.95;;
44145;SDS011;29809;52.432;4.780;2022-12-18T01:05:59;19.52;;;15.88;;
44145;SDS011;29809;52.432;4.780;2022-12-18T01:08:24;20.85;;;16.83;;
44145;SDS011;29809;52.432;4.780;2022-12-18T01:10:50;18.48;;;15.45;;
44145;SDS011;29809;52.432;4.780;2022-12-18T01:13:15;19.60;;;16.23;;
44145;SDS011;29809;52.432;4.780;2022-12-18T01:15:40;18.40;;;15.88;;
44145;SDS011;29809;52.432;4.780;2022-12-18T01:18:06;21.85;;;16.95;;
44145;SDS011;29809;52.432;4.780;2022-12-18T01:20:31;20.90;;;16.23;;
44145;SDS011;29809;52.432;4.780;2022-12-18T01:22:56;19.23;;;15.88;;
44145;SDS011;29809;52.432;4.780;2022-12-18T01:25:22;20.33;;;16.40;;
44145;SDS011;29809;52.432;4.780;2022-12-18T01:27:47;20.13;;;15.90;;
44145;SDS011;29809;52.432;4.780;2022-12-18T01:30:12;18.48;;;15.30;;
44145;SDS011;29809;52.432;4.780;2022-12-18T01:32:38;18.67;;;15.13;;
44145;SDS011;29809;52.432;4.780;2022-12-18T01:35:03;19.40;;;15.77;;
44145;SDS011;29809;52.432;4.780;2022-12-18T01:37:28;18.92;;;15.35;;
44145;SDS011;29809;52.432;4.780;2022-12-18T01:39:54;19.23;;;15.55;;
44145;SDS011;29809;52.432;4.780;2022-12-18T01:42:19;19.60;;;15.60;;
44145;SDS011;29809;52.432;4.780;2022-12-18T01:44:56;20.42;;;15.80;;
44145;SDS011;29809;52.432;4.780;2022-12-18T01:52:33;18.20;;;14.55;;
44145;SDS011;29809;52.432;4.780;2022-12-18T01:54:59;18.13;;;15.18;;
44145;SDS011;29809;52.432;4.780;2022-12-18T01:57:25;17.25;;;15.23;;
44145;SDS011;29809;52.432;4.780;2022-12-18T01:59:52;20.55;;;15.13;;
44145;SDS011;29809;52.432;4.780;2022-12-18T02:02:18;19.05;;;15.23;;
44145;SDS011;29809;52.432;4.780;2022-12-18T02:04:43;20.15;;;15.98;;
44145;SDS011;29809;52.432;4.780;2022-12-18T02:09:50;19.15;;;14.88;;
44145;SDS011;29809;52.432;4.780;2022-12-18T02:12:19;18.77;;;15.13;;
44145;SDS011;29809;52.432;4.780;2022-12-18T02:17:12;19.83;;;16.02;;
44145;SDS011;29809;52.432;4.780;2022-12-18T02:27:06;19.63;;;15.47;;
44145;SDS011;29809;52.432;4.780;2022-12-18T02:29:33;19.10;;;15.18;;
44145;SDS011;29809;52.432;4.780;2022-12-18T02:32:00;17.88;;;14.75;;
44145;SDS011;29809;52.432;4.780;2022-12-18T02:34:31;20.23;;;15.45;;
44145;SDS011;29809;52.432;4.780;2022-12-18T02:36:58;19.48;;;15.32;;
44145;SDS011;29809;52.432;4.780;2022-12-18T02:39:25;18.60;;;15.27;;
44145;SDS011;29809;52.432;4.780;2022-12-18T02:41:51;16.88;;;14.30;;
44145;SDS011;29809;52.432;4.780;2022-12-18T02:44:16;19.83;;;15.57;;
44145;SDS011;29809;52.432;4.780;2022-12-18T02:46:46;18.13;;;14.93;;
44145;SDS011;29809;52.432;4.780;2022-12-18T02:57:14;19.35;;;15.85;;
44145;SDS011;29809;52.432;4.780;2022-12-18T02:59:45;19.07;;;15.00;;
44145;SDS011;29809;52.432;4.780;2022-12-18T03:02:17;17.92;;;14.88;;
44145;SDS011;29809;52.432;4.780;2022-12-18T03:04:51;16.60;;;13.65;;
44145;SDS011;29809;52.432;4.780;2022-12-18T03:07:19;18.33;;;14.90;;
44145;SDS011;29809;52.432;4.780;2022-12-18T03:09:46;18.50;;;15.10;;
44145;SDS011;29809;52.432;4.780;2022-12-18T03:12:17;18.03;;;14.63;;
44145;SDS011;29809;52.432;4.780;2022-12-18T03:15:12;16.93;;;13.73;;
44145;SDS011;29809;52.432;4.780;2022-12-18T03:17:35;17.98;;;13.93;;
44145;SDS011;29809;52.432;4.780;2022-12-18T03:20:10;16.93;;;13.47;;
44145;SDS011;29809;52.432;4.780;2022-12-18T03:22:37;15.77;;;13.65;;
44145;SDS011;29809;52.432;4.780;2022-12-18T03:25:04;16.70;;;14.37;;
44145;SDS011;29809;52.432;4.780;2022-12-18T03:27:31;17.90;;;14.57;;
44145;SDS011;29809;52.432;4.780;2022-12-18T03:30:10;17.50;;;14.50;;
44145;SDS011;29809;52.432;4.780;2022-12-18T03:33:00;16.47;;;13.40;;
44145;SDS011;29809;52.432;4.780;2022-12-18T03:35:23;16.13;;;12.80;;
44145;SDS011;29809;52.432;4.780;2022-12-18T03:37:49;15.67;;;13.60;;
44145;SDS011;29809;52.432;4.780;2022-12-18T03:40:15;15.73;;;13.83;;
44145;SDS011;29809;52.432;4.780;2022-12-18T03:45:13;15.27;;;13.27;;
44145;SDS011;29809;52.432;4.780;2022-12-18T03:50:27;14.53;;;12.57;;
44145;SDS011;29809;52.432;4.780;2022-12-18T03:55:20;15.53;;;13.03;;
44145;SDS011;29809;52.432;4.780;2022-12-18T03:57:47;15.80;;;13.47;;
44145;SDS011;29809;52.432;4.780;2022-12-18T04:00:13;14.97;;;12.77;;
44145;SDS011;29809;52.432;4.780;2022-12-18T04:02:41;14.23;;;11.57;;
44145;SDS011;29809;52.432;4.780;2022-12-18T04:05:08;14.60;;;12.73;;
44145;SDS011;29809;52.432;4.780;2022-12-18T04:07:35;15.63;;;13.07;;
44145;SDS011;29809;52.432;4.780;2022-12-18T04:10:01;15.70;;;13.10;;
44145;SDS011;29809;52.432;4.780;2022-12-18T04:12:28;16.20;;;13.07;;
44145;SDS011;29809;52.432;4.780;2022-12-18T04:14:53;15.07;;;12.40;;
44145;SDS011;29809;52.432;4.780;2022-12-18T04:17:18;14.77;;;13.13;;
44145;SDS011;29809;52.432;4.780;2022-12-18T04:19:44;15.40;;;13.77;;
44145;SDS011;29809;52.432;4.780;2022-12-18T04:22:10;14.95;;;12.38;;
44145;SDS011;29809;52.432;4.780;2022-12-18T04:24:35;13.67;;;12.20;;
44145;SDS011;29809;52.432;4.780;2022-12-18T04:27:00;13.40;;;12.00;;
44145;SDS011;29809;52.432;4.780;2022-12-18T04:29:26;14.40;;;12.83;;
44145;SDS011;29809;52.432;4.780;2022-12-18T04:31:51;15.13;;;12.77;;
44145;SDS011;29809;52.432;4.780;2022-12-18T04:34:16;15.40;;;13.07;;
44145;SDS011;29809;52.432;4.780;2022-12-18T04:36:41;13.55;;;11.68;;
44145;SDS011;29809;52.432;4.780;2022-12-18T04:39:07;13.33;;;11.67;;
44145;SDS011;29809;52.432;4.780;2022-12-18T04:41:32;13.43;;;11.87;;
44145;SDS011;29809;52.432;4.780;2022-12-18T04:43:57;13.10;;;11.27;;
44145;SDS011;29809;52.432;4.780;2022-12-18T04:46:22;13.73;;;12.17;;
44145;SDS011;29809;52.432;4.780;2022-12-18T04:48:48;13.37;;;11.97;;
44145;SDS011;29809;52.432;4.780;2022-12-18T04:51:13;13.47;;;11.57;;
44145;SDS011;29809;52.432;4.780;2022-12-18T04:53:38;13.40;;;12.00;;
44145;SDS011;29809;52.432;4.780;2022-12-18T04:56:08;13.37;;;11.80;;
44145;SDS011;29809;52.432;4.780;2022-12-18T04:58:34;14.37;;;12.37;;
44145;SDS011;29809;52.432;4.780;2022-12-18T05:00:59;13.07;;;11.67;;
44145;SDS011;29809;52.432;4.780;2022-12-18T05:03:24;13.17;;;11.63;;
44145;SDS011;29809;52.432;4.780;2022-12-18T05:05:50;12.73;;;11.33;;
44145;SDS011;29809;52.432;4.780;2022-12-18T05:08:16;15.83;;;12.20;;
44145;SDS011;29809;52.432;4.780;2022-12-18T05:10:41;14.00;;;12.23;;
44145;SDS011;29809;52.432;4.780;2022-12-18T05:13:06;13.07;;;11.68;;
44145;SDS011;29809;52.432;4.780;2022-12-18T05:15:32;13.80;;;12.30;;
44145;SDS011;29809;52.432;4.780;2022-12-18T05:17:58;13.50;;;12.10;;
44145;SDS011;29809;52.432;4.780;2022-12-18T05:20:23;13.23;;;11.73;;
44145;SDS011;29809;52.432;4.780;2022-12-18T05:22:49;12.80;;;11.17;;
44145;SDS011;29809;52.432;4.780;2022-12-18T05:25:14;13.20;;;11.30;;
44145;SDS011;29809;52.432;4.780;2022-12-18T05:27:40;13.50;;;11.77;;
44145;SDS011;29809;52.432;4.780;2022-12-18T05:30:05;12.97;;;11.57;;
44145;SDS011;29809;52.432;4.780;2022-12-18T05:32:31;13.10;;;11.53;;
44145;SDS011;29809;52.432;4.780;2022-12-18T05:34:56;12.90;;;11.60;;
44145;SDS011;29809;52.432;4.780;2022-12-18T05:37:22;12.80;;;11.40;;
44145;SDS011;29809;52.432;4.780;2022-12-18T05:39:47;13.93;;;12.53;;
44145;SDS011;29809;52.432;4.780;2022-12-18T05:42:12;12.98;;;11.55;;
44145;SDS011;29809;52.432;4.780;2022-12-18T05:44:38;13.17;;;11.60;;
44145;SDS011;29809;52.432;4.780;2022-12-18T05:47:03;13.00;;;11.30;;
44145;SDS011;29809;52.432;4.780;2022-12-18T05:49:29;12.50;;;11.17;;
44145;SDS011;29809;52.432;4.780;2022-12-18T05:51:54;12.07;;;10.87;;
44145;SDS011;29809;52.432;4.780;2022-12-18T05:54:19;13.43;;;12.03;;
44145;SDS011;29809;52.432;4.780;2022-12-18T05:56:44;13.27;;;11.90;;
44145;SDS011;29809;52.432;4.780;2022-12-18T05:59:10;12.90;;;11.60;;
44145;SDS011;29809;52.432;4.780;2022-12-18T06:01:35;11.67;;;10.07;;
44145;SDS011;29809;52.432;4.780;2022-12-18T06:04:00;14.27;;;11.90;;
44145;SDS011;29809;52.432;4.780;2022-12-18T06:06:26;12.23;;;10.97;;
44145;SDS011;29809;52.432;4.780;2022-12-18T06:08:52;12.53;;;11.10;;
44145;SDS011;29809;52.432;4.780;2022-12-18T06:11:19;12.03;;;10.83;;
44145;SDS011;29809;52.432;4.780;2022-12-18T06:13:44;12.57;;;11.27;;
44145;SDS011;29809;52.432;4.780;2022-12-18T06:16:10;12.47;;;11.17;;
44145;SDS011;29809;52.432;4.780;2022-12-18T06:18:35;12.67;;;11.27;;
44145;SDS011;29809;52.432;4.780;2022-12-18T06:21:02;13.83;;;12.13;;
44145;SDS011;29809;52.432;4.780;2022-12-18T06:23:27;12.53;;;11.27;;
44145;SDS011;29809;52.432;4.780;2022-12-18T06:25:53;11.67;;;10.47;;
44145;SDS011;29809;52.432;4.780;2022-12-18T06:28:18;12.53;;;11.23;;
44145;SDS011;29809;52.432;4.780;2022-12-18T06:30:44;12.40;;;10.70;;
44145;SDS011;29809;52.432;4.780;2022-12-18T06:33:09;12.57;;;11.10;;
44145;SDS011;29809;52.432;4.780;2022-12-18T06:35:35;12.40;;;11.03;;
44145;SDS011;29809;52.432;4.780;2022-12-18T06:38:01;14.27;;;11.77;;
44145;SDS011;29809;52.432;4.780;2022-12-18T06:40:26;12.30;;;11.00;;
44145;SDS011;29809;52.432;4.780;2022-12-18T06:42:51;12.77;;;11.23;;
44145;SDS011;29809;52.432;4.780;2022-12-18T06:45:17;14.57;;;11.43;;
44145;SDS011;29809;52.432;4.780;2022-12-18T06:47:42;15.13;;;11.33;;
44145;SDS011;29809;52.432;4.780;2022-12-18T06:50:07;13.20;;;11.10;;
44145;SDS011;29809;52.432;4.780;2022-12-18T06:52:33;13.48;;;11.10;;
44145;SDS011;29809;52.432;4.780;2022-12-18T06:54:58;12.97;;;10.07;;
44145;SDS011;29809;52.432;4.780;2022-12-18T06:57:24;11.60;;;10.30;;
44145;SDS011;29809;52.432;4.780;2022-12-18T06:59:49;12.70;;;10.87;;
44145;SDS011;29809;52.432;4.780;2022-12-18T07:02:14;11.37;;;10.17;;
44145;SDS011;29809;52.432;4.780;2022-12-18T07:04:39;11.77;;;10.57;;
44145;SDS011;29809;52.432;4.780;2022-12-18T07:07:05;11.60;;;10.40;;
44145;SDS011;29809;52.432;4.780;2022-12-18T07:09:30;13.87;;;10.60;;
44145;SDS011;29809;52.432;4.780;2022-12-18T07:11:55;12.63;;;10.90;;
44145;SDS011;29809;52.432;4.780;2022-12-18T07:14:20;12.27;;;10.98;;
44145;SDS011;29809;52.432;4.780;2022-12-18T07:16:46;11.57;;;10.37;;
44145;SDS011;29809;52.432;4.780;2022-12-18T07:19:11;12.83;;;10.50;;
44145;SDS011;29809;52.432;4.780;2022-12-18T07:21:36;11.33;;;10.00;;
44145;SDS011;29809;52.432;4.780;2022-12-18T07:24:01;11.27;;;10.13;;
44145;SDS011;29809;52.432;4.780;2022-12-18T07:26:27;12.17;;;10.53;;
44145;SDS011;29809;52.432;4.780;2022-12-18T07:28:54;11.60;;;10.20;;
44145;SDS011;29809;52.432;4.780;2022-12-18T07:31:20;10.57;;;9.47;;
44145;SDS011;29809;52.432;4.780;2022-12-18T07:33:46;10.60;;;9.50;;
44145;SDS011;29809;52.432;4.780;2022-12-18T07:36:12;10.40;;;9.00;;
44145;SDS011;29809;52.432;4.780;2022-12-18T07:38:37;10.50;;;9.40;;
44145;SDS011;29809;52.432;4.780;2022-12-18T07:41:06;10.70;;;9.60;;
44145;SDS011;29809;52.432;4.780;2022-12-18T07:43:32;10.50;;;9.50;;
44145;SDS011;29809;52.432;4.780;2022-12-18T07:45:57;9.93;;;8.97;;
44145;SDS011;29809;52.432;4.780;2022-12-18T07:48:22;10.97;;;9.87;;
44145;SDS011;29809;52.432;4.780;2022-12-18T07:50:48;11.73;;;10.20;;
44145;SDS011;29809;52.432;4.780;2022-12-18T07:53:13;10.27;;;9.17;;
44145;SDS011;29809;52.432;4.780;2022-12-18T07:55:39;10.23;;;9.17;;
44145;SDS011;29809;52.432;4.780;2022-12-18T07:58:06;9.37;;;8.47;;
44145;SDS011;29809;52.432;4.780;2022-12-18T08:00:31;9.50;;;8.37;;
44145;SDS011;29809;52.432;4.780;2022-12-18T08:02:57;9.40;;;8.40;;
44145;SDS011;29809;52.432;4.780;2022-12-18T08:05:22;9.17;;;8.27;;
44145;SDS011;29809;52.432;4.780;2022-12-18T08:07:47;9.60;;;8.50;;
44145;SDS011;29809;52.432;4.780;2022-12-18T08:10:13;9.13;;;8.13;;
44145;SDS011;29809;52.432;4.780;2022-12-18T08:12:38;9.57;;;8.57;;
44145;SDS011;29809;52.432;4.780;2022-12-18T08:15:04;9.03;;;8.13;;
44145;SDS011;29809;52.432;4.780;2022-12-18T08:17:29;9.17;;;8.27;;
44145;SDS011;29809;52.432;4.780;2022-12-18T08:19:54;8.80;;;7.90;;
44145;SDS011;29809;52.432;4.780;2022-12-18T08:22:19;8.33;;;7.43;;
44145;SDS011;29809;52.432;4.780;2022-12-18T08:24:45;8.40;;;7.50;;
44145;SDS011;29809;52.432;4.780;2022-12-18T08:27:10;9.03;;;8.13;;
44145;SDS011;29809;52.432;4.780;2022-12-18T08:29:35;9.10;;;8.20;;
44145;SDS011;29809;52.432;4.780;2022-12-18T08:32:00;8.60;;;7.40;;
44145;SDS011;29809;52.432;4.780;2022-12-18T08:34:26;8.43;;;7.60;;
44145;SDS011;29809;52.432;4.780;2022-12-18T08:36:51;8.47;;;7.57;;
44145;SDS011;29809;52.432;4.780;2022-12-18T08:39:16;9.13;;;7.20;;
44145;SDS011;29809;52.432;4.780;2022-12-18T08:41:41;7.30;;;6.57;;
44145;SDS011;29809;52.432;4.780;2022-12-18T08:44:07;7.33;;;6.63;;
44145;SDS011;29809;52.432;4.780;2022-12-18T08:46:51;12.67;;;6.57;;
44145;SDS011;29809;52.432;4.780;2022-12-18T08:49:16;7.53;;;6.80;;
44145;SDS011;29809;52.432;4.780;2022-12-18T08:51:41;7.10;;;6.40;;
44145;SDS011;29809;52.432;4.780;2022-12-18T08:54:07;7.27;;;6.57;;
44145;SDS011;29809;52.432;4.780;2022-12-18T08:56:34;7.63;;;6.93;;
44145;SDS011;29809;52.432;4.780;2022-12-18T08:58:59;7.00;;;6.30;;
44145;SDS011;29809;52.432;4.780;2022-12-18T09:01:24;6.93;;;5.97;;
44145;SDS011;29809;52.432;4.780;2022-12-18T09:03:50;8.80;;;5.97;;
44145;SDS011;29809;52.432;4.780;2022-12-18T09:06:16;9.07;;;6.83;;
44145;SDS011;29809;52.432;4.780;2022-12-18T09:08:42;9.87;;;6.37;;
44145;SDS011;29809;52.432;4.780;2022-12-18T09:11:26;77.63;;;24.13;;
44145;SDS011;29809;52.432;4.780;2022-12-18T09:13:52;62.90;;;20.83;;
44145;SDS011;29809;52.432;4.780;2022-12-18T09:16:18;60.20;;;22.60;;
44145;SDS011;29809;52.432;4.780;2022-12-18T09:18:44;49.53;;;19.67;;
44145;SDS011;29809;52.432;4.780;2022-12-18T09:21:11;56.03;;;18.93;;
44145;SDS011;29809;52.432;4.780;2022-12-18T09:23:36;63.30;;;19.33;;
44145;SDS011;29809;52.432;4.780;2022-12-18T09:26:02;51.73;;;19.60;;
44145;SDS011;29809;52.432;4.780;2022-12-18T09:28:27;37.87;;;17.33;;
44145;SDS011;29809;52.432;4.780;2022-12-18T09:30:53;36.47;;;16.20;;
44145;SDS011;29809;52.432;4.780;2022-12-18T09:33:18;35.00;;;15.13;;
44145;SDS011;29809;52.432;4.780;2022-12-18T09:35:44;35.50;;;14.57;;
44145;SDS011;29809;52.432;4.780;2022-12-18T09:38:11;24.63;;;13.87;;
44145;SDS011;29809;52.432;4.780;2022-12-18T09:40:53;23.47;;;12.40;;
44145;SDS011;29809;52.432;4.780;2022-12-18T09:43:20;27.03;;;12.50;;
44145;SDS011;29809;52.432;4.780;2022-12-18T09:45:47;22.80;;;12.60;;
44145;SDS011;29809;52.432;4.780;2022-12-18T09:48:19;23.67;;;11.70;;
44145;SDS011;29809;52.432;4.780;2022-12-18T09:50:46;19.27;;;11.23;;
44145;SDS011;29809;52.432;4.780;2022-12-18T09:53:17;18.77;;;10.90;;
44145;SDS011;29809;52.432;4.780;2022-12-18T09:55:45;16.83;;;10.90;;
44145;SDS011;29809;52.432;4.780;2022-12-18T09:58:15;17.57;;;10.07;;
44145;SDS011;29809;52.432;4.780;2022-12-18T10:00:42;22.93;;;10.97;;
44145;SDS011;29809;52.432;4.780;2022-12-18T10:03:11;15.90;;;10.27;;
44145;SDS011;29809;52.432;4.780;2022-12-18T10:05:39;13.93;;;9.53;;
44145;SDS011;29809;52.432;4.780;2022-12-18T10:13:15;21.20;;;10.47;;
44145;SDS011;29809;52.432;4.780;2022-12-18T10:20:52;13.63;;;9.32;;
44145;SDS011;29809;52.432;4.780;2022-12-18T10:28:25;11.20;;;8.77;;
44145;SDS011;29809;52.432;4.780;2022-12-18T10:30:51;12.77;;;8.80;;
44145;SDS011;29809;52.432;4.780;2022-12-18T10:33:17;11.25;;;8.05;;
44145;SDS011;29809;52.432;4.780;2022-12-18T10:35:43;11.73;;;7.90;;
44145;SDS011;29809;52.432;4.780;2022-12-18T10:40:51;9.90;;;8.23;;
44145;SDS011;29809;52.432;4.780;2022-12-18T10:43:21;10.57;;;8.07;;
44145;SDS011;29809;52.432;4.780;2022-12-18T10:46:30;8.20;;;7.40;;
44145;SDS011;29809;52.432;4.780;2022-12-18T10:51:01;9.27;;;7.40;;
44145;SDS011;29809;52.432;4.780;2022-12-18T10:53:28;9.73;;;6.72;;
44145;SDS011;29809;52.432;4.780;2022-12-18T10:55:55;11.27;;;7.15;;
44145;SDS011;29809;52.432;4.780;2022-12-18T10:58:25;6.55;;;5.95;;
44145;SDS011;29809;52.432;4.780;2022-12-18T11:01:24;8.57;;;6.60;;
44145;SDS011;29809;52.432;4.780;2022-12-18T11:06:18;6.32;;;5.72;;
44145;SDS011;29809;52.432;4.780;2022-12-18T11:08:44;7.88;;;6.95;;
44145;SDS011;29809;52.432;4.780;2022-12-18T11:11:20;7.30;;;6.03;;
44145;SDS011;29809;52.432;4.780;2022-12-18T11:13:57;6.60;;;6.05;;
44145;SDS011;29809;52.432;4.780;2022-12-18T11:16:24;6.80;;;6.10;;
44145;SDS011;29809;52.432;4.780;2022-12-18T11:18:49;6.82;;;6.13;;
44145;SDS011;29809;52.432;4.780;2022-12-18T11:21:15;6.15;;;5.57;;
44145;SDS011;29809;52.432;4.780;2022-12-18T11:23:47;6.53;;;5.93;;
44145;SDS011;29809;52.432;4.780;2022-12-18T11:26:13;6.88;;;6.18;;
44145;SDS011;29809;52.432;4.780;2022-12-18T11:31:19;7.13;;;6.43;;
44145;SDS011;29809;52.432;4.780;2022-12-18T11:36:22;7.22;;;6.53;;
44145;SDS011;29809;52.432;4.780;2022-12-18T11:38:48;6.13;;;5.53;;
44145;SDS011;29809;52.432;4.780;2022-12-18T11:41:24;6.82;;;6.18;;
44145;SDS011;29809;52.432;4.780;2022-12-18T11:44:11;7.18;;;5.95;;
44145;SDS011;29809;52.432;4.780;2022-12-18T11:46:41;7.72;;;5.65;;
44145;SDS011;29809;52.432;4.780;2022-12-18T11:52:00;6.65;;;5.60;;
44145;SDS011;29809;52.432;4.780;2022-12-18T11:54:26;5.90;;;5.30;;
44145;SDS011;29809;52.432;4.780;2022-12-18T12:01:53;5.72;;;5.18;;
44145;SDS011;29809;52.432;4.780;2022-12-18T12:09:23;5.78;;;5.28;;
44145;SDS011;29809;52.432;4.780;2022-12-18T12:16:47;5.78;;;5.15;;
44145;SDS011;29809;52.432;4.780;2022-12-18T12:19:21;5.47;;;4.97;;
44145;SDS011;29809;52.432;4.780;2022-12-18T12:24:49;5.35;;;4.85;;
44145;SDS011;29809;52.432;4.780;2022-12-18T12:30:16;5.70;;;5.20;;
44145;SDS011;29809;52.432;4.780;2022-12-18T12:35:55;5.30;;;4.80;;
44145;SDS011;29809;52.432;4.780;2022-12-18T12:38:31;5.45;;;4.95;;
44145;SDS011;29809;52.432;4.780;2022-12-18T12:40:59;6.60;;;5.45;;
44145;SDS011;29809;52.432;4.780;2022-12-18T12:43:38;5.53;;;4.55;;
44145;SDS011;29809;52.432;4.780;2022-12-18T12:46:11;5.70;;;5.10;;
44145;SDS011;29809;52.432;4.780;2022-12-18T12:51:25;7.32;;;4.75;;
44145;SDS011;29809;52.432;4.780;2022-12-18T12:53:50;6.63;;;5.32;;
44145;SDS011;29809;52.432;4.780;2022-12-18T12:56:17;5.80;;;4.60;;
44145;SDS011;29809;52.432;4.780;2022-12-18T13:01:10;7.40;;;4.95;;
44145;SDS011;29809;52.432;4.780;2022-12-18T13:09:03;6.30;;;5.20;;
44145;SDS011;29809;52.432;4.780;2022-12-18T13:14:49;6.20;;;4.95;;
44145;SDS011;29809;52.432;4.780;2022-12-18T13:19:48;5.72;;;5.18;;
44145;SDS011;29809;52.432;4.780;2022-12-18T13:22:24;5.20;;;4.70;;
44145;SDS011;29809;52.432;4.780;2022-12-18T13:24:49;5.30;;;4.68;;
44145;SDS011;29809;52.432;4.780;2022-12-18T13:29:59;4.93;;;4.53;;
44145;SDS011;29809;52.432;4.780;2022-12-18T13:32:24;5.82;;;5.32;;
44145;SDS011;29809;52.432;4.780;2022-12-18T13:37:44;6.45;;;4.40;;
44145;SDS011;29809;52.432;4.780;2022-12-18T13:42:59;5.43;;;5.03;;
44145;SDS011;29809;52.432;4.780;2022-12-18T13:45:41;6.07;;;4.95;;
44145;SDS011;29809;52.432;4.780;2022-12-18T13:48:13;5.18;;;4.68;;
44145;SDS011;29809;52.432;4.780;2022-12-18T13:50:39;5.82;;;5.20;;
44145;SDS011;29809;52.432;4.780;2022-12-18T13:53:04;5.30;;;4.88;;
44145;SDS011;29809;52.432;4.780;2022-12-18T13:55:30;4.90;;;4.38;;
44145;SDS011;29809;52.432;4.780;2022-12-18T13:58:04;5.30;;;4.82;;
44145;SDS011;29809;52.432;4.780;2022-12-18T14:00:30;5.25;;;4.75;;
44145;SDS011;29809;52.432;4.780;2022-12-18T14:02:55;5.63;;;5.13;;
44145;SDS011;29809;52.432;4.780;2022-12-18T14:05:31;5.05;;;4.65;;
44145;SDS011;29809;52.432;4.780;2022-12-18T14:08:00;7.15;;;4.90;;
44145;SDS011;29809;52.432;4.780;2022-12-18T14:10:26;5.30;;;4.80;;
44145;SDS011;29809;52.432;4.780;2022-12-18T14:12:52;5.03;;;4.53;;
44145;SDS011;29809;52.432;4.780;2022-12-18T14:17:46;5.30;;;4.80;;
44145;SDS011;29809;52.432;4.780;2022-12-18T14:20:14;4.80;;;4.32;;
44145;SDS011;29809;52.432;4.780;2022-12-18T14:22:43;4.85;;;4.35;;
44145;SDS011;29809;52.432;4.780;2022-12-18T14:25:13;4.60;;;4.20;;
44145;SDS011;29809;52.432;4.780;2022-12-18T14:27:44;5.28;;;4.78;;
44145;SDS011;29809;52.432;4.780;2022-12-18T14:30:26;4.97;;;4.47;;
44145;SDS011;29809;52.432;4.780;2022-12-18T14:33:05;4.53;;;4.13;;
44145;SDS011;29809;52.432;4.780;2022-12-18T14:35:31;5.20;;;4.70;;
44145;SDS011;29809;52.432;4.780;2022-12-18T14:40:40;4.68;;;4.18;;
44145;SDS011;29809;52.432;4.780;2022-12-18T14:43:08;4.95;;;4.45;;
44145;SDS011;29809;52.432;4.780;2022-12-18T14:45:37;5.00;;;4.60;;
44145;SDS011;29809;52.432;4.780;2022-12-18T14:48:08;4.90;;;4.40;;
44145;SDS011;29809;52.432;4.780;2022-12-18T14:50:34;5.28;;;4.78;;
44145;SDS011;29809;52.432;4.780;2022-12-18T14:52:59;7.13;;;5.25;;
44145;SDS011;29809;52.432;4.780;2022-12-18T14:55:25;6.32;;;5.72;;
44145;SDS011;29809;52.432;4.780;2022-12-18T14:57:51;9.75;;;5.88;;
44145;SDS011;29809;52.432;4.780;2022-12-18T15:00:18;6.18;;;5.57;;
44145;SDS011;29809;52.432;4.780;2022-12-18T15:02:51;5.95;;;5.40;;
44145;SDS011;29809;52.432;4.780;2022-12-18T15:07:49;9.27;;;5.40;;
44145;SDS011;29809;52.432;4.780;2022-12-18T15:10:16;5.90;;;5.32;;
44145;SDS011;29809;52.432;4.780;2022-12-18T15:17:57;6.25;;;5.65;;
44145;SDS011;29809;52.432;4.780;2022-12-18T15:20:23;6.03;;;5.25;;
44145;SDS011;29809;52.432;4.780;2022-12-18T15:22:48;5.43;;;4.93;;
44145;SDS011;29809;52.432;4.780;2022-12-18T15:25:24;5.93;;;5.32;;
44145;SDS011;29809;52.432;4.780;2022-12-18T15:27:52;6.13;;;5.53;;
44145;SDS011;29809;52.432;4.780;2022-12-18T15:30:18;6.88;;;5.60;;
44145;SDS011;29809;52.432;4.780;2022-12-18T15:32:44;7.82;;;6.20;;
44145;SDS011;29809;52.432;4.780;2022-12-18T15:37:35;7.05;;;5.70;;
44145;SDS011;29809;52.432;4.780;2022-12-18T15:40:01;5.75;;;5.20;;
44145;SDS011;29809;52.432;4.780;2022-12-18T15:42:27;5.32;;;4.82;;
44145;SDS011;29809;52.432;4.780;2022-12-18T15:45:11;8.50;;;6.32;;
44145;SDS011;29809;52.432;4.780;2022-12-18T15:47:37;7.18;;;5.63;;
44145;SDS011;29809;52.432;4.780;2022-12-18T15:50:02;5.78;;;5.10;;
44145;SDS011;29809;52.432;4.780;2022-12-18T15:52:28;7.32;;;5.80;;
44145;SDS011;29809;52.432;4.780;2022-12-18T15:54:53;6.75;;;5.93;;
44145;SDS011;29809;52.432;4.780;2022-12-18T15:57:37;6.80;;;5.55;;
44145;SDS011;29809;52.432;4.780;2022-12-18T16:00:02;6.30;;;5.55;;
44145;SDS011;29809;52.432;4.780;2022-12-18T16:02:28;6.45;;;5.22;;
44145;SDS011;29809;52.432;4.780;2022-12-18T16:04:53;5.53;;;5.03;;
44145;SDS011;29809;52.432;4.780;2022-12-18T16:07:19;7.50;;;5.60;;
44145;SDS011;29809;52.432;4.780;2022-12-18T16:09:44;5.82;;;5.32;;
44145;SDS011;29809;52.432;4.780;2022-12-18T16:12:16;6.50;;;5.45;;
44145;SDS011;29809;52.432;4.780;2022-12-18T16:14:42;8.80;;;5.93;;
44145;SDS011;29809;52.432;4.780;2022-12-18T16:17:09;6.22;;;5.63;;
44145;SDS011;29809;52.432;4.780;2022-12-18T16:19:34;6.57;;;5.57;;
44145;SDS011;29809;52.432;4.780;2022-12-18T16:21:59;6.28;;;5.78;;
44145;SDS011;29809;52.432;4.780;2022-12-18T16:24:26;7.70;;;5.22;;
44145;SDS011;29809;52.432;4.780;2022-12-18T16:26:53;5.97;;;5.38;;
44145;SDS011;29809;52.432;4.780;2022-12-18T16:29:19;5.55;;;5.05;;
44145;SDS011;29809;52.432;4.780;2022-12-18T16:31:49;6.72;;;5.07;;
44145;SDS011;29809;52.432;4.780;2022-12-18T16:34:18;5.82;;;5.18;;
44145;SDS011;29809;52.432;4.780;2022-12-18T16:36:47;5.25;;;4.75;;
44145;SDS011;29809;52.432;4.780;2022-12-18T16:39:12;6.50;;;5.28;;
44145;SDS011;29809;52.432;4.780;2022-12-18T16:41:37;6.57;;;5.07;;